CheckWX is a tool to help pilots better visualize weather data.  It is not intended as a substitute for an official pre-flight weather briefing.

20:46:32 UTC

KFVE TAF
Northern Aroostook Regional Airport
Frenchville, Maine, USA
KFVE 221927Z 2219/2318 17013KT 1/2SM SNRA OVC002 WS020/21040KT FM222030 18013KT 1SM -RA BR OVC004 WS020/22035KT FM222300 22010G19KT 5SM BR BKN012 FM230300 28013G23KT P6SM VCSH BKN017 FM231100 30016G31KT P6SM BKN035

Nov-22@
19:00 UTC

Nov-22 @ 19:00 UTC

Nov-22@
20:30 UTC

Nov-22 @ 20:30 UTC

KFVE 221927Z 2219/2318 17013KT 1/2SM SNRA OVC002 WS020/21040KT

Expired

Wind
  • 170° at 13 KTS
Conditions
Snow, Rain
Cloud Levels
  • Overcast at 200' AGL

Nov-22@
20:30 UTC

Nov-22 @ 20:30 UTC

Nov-22@
23:00 UTC

Nov-22 @ 23:00 UTC

FM222030 18013KT 1SM -RA BR OVC004 WS020/22035KT

From

From Standard forecast or significant change

Wind
  • 180° at 13 KTS
Conditions
Light Rain, Mist
Cloud Levels
  • Overcast at 400' AGL

Nov-22@
23:00 UTC

Nov-22 @ 23:00 UTC

Nov-23@
03:00 UTC

Nov-23 @ 03:00 UTC

FM222300 22010G19KT 5SM BR BKN012

From

From Standard forecast or significant change

Wind
  • 220° at 10 KTS
  • {Gusting to 19 KTS
Conditions
Mist
Cloud Levels
  • Broken at 1,200' AGL

Nov-23@
03:00 UTC

Nov-23 @ 03:00 UTC

Nov-23@
11:00 UTC

Nov-23 @ 11:00 UTC

FM230300 28013G23KT P6SM VCSH BKN017

From

From Standard forecast or significant change

Wind
  • 280° at 13 KTS
  • {Gusting to 23 KTS
Cloud Levels
  • Broken at 1,700' AGL

Nov-23@
11:00 UTC

Nov-23 @ 11:00 UTC

Nov-23@
18:00 UTC

Nov-23 @ 18:00 UTC

FM231100 30016G31KT P6SM BKN035

From

From Standard forecast or significant change

Wind
  • 300° at 16 KTS
  • {Gusting to 31 KTS
Cloud Levels
  • Broken at 3,500' AGL